createdAt,value
2022-12-05T00:01:15.513Z,13.85
2022-12-05T00:03:42.748Z,11.25
2022-12-05T00:06:09.712Z,11.90
2022-12-05T00:08:36.706Z,11.23
2022-12-05T00:11:03.803Z,12.40
2022-12-05T00:13:30.893Z,13.50
2022-12-05T00:15:57.837Z,11.93
2022-12-05T00:18:24.865Z,13.93
2022-12-05T00:20:51.826Z,12.43
2022-12-05T00:23:18.846Z,11.55
2022-12-05T00:25:45.799Z,9.70
2022-12-05T00:28:12.787Z,11.35
2022-12-05T00:30:41.166Z,11.73
2022-12-05T00:33:08.213Z,11.13
2022-12-05T00:35:35.324Z,9.82
2022-12-05T00:38:02.334Z,12.48
2022-12-05T00:40:29.273Z,12.55
2022-12-05T00:42:56.649Z,9.52
2022-12-05T00:45:23.591Z,13.55
2022-12-05T00:47:50.540Z,11.95
2022-12-05T00:50:17.520Z,12.75
2022-12-05T00:52:44.416Z,9.30
2022-12-05T00:55:11.319Z,12.93
2022-12-05T00:57:38.223Z,10.95
2022-12-05T01:00:07.050Z,11.02
2022-12-05T01:02:33.985Z,9.02
2022-12-05T01:05:00.991Z,9.57
2022-12-05T01:07:27.929Z,10.48
2022-12-05T01:09:55.080Z,8.88
2022-12-05T01:12:22.227Z,10.57
2022-12-05T01:14:49.160Z,11.50
2022-12-05T01:17:16.127Z,9.80
2022-12-05T01:19:43.105Z,8.20
2022-12-05T01:22:10.063Z,10.07
2022-12-05T01:24:36.967Z,9.95
2022-12-05T01:27:03.948Z,10.32
2022-12-05T01:29:31.052Z,10.82
2022-12-05T01:31:58.332Z,11.27
2022-12-05T01:34:25.468Z,9.60
2022-12-05T01:36:52.968Z,9.73
2022-12-05T01:39:20.079Z,9.30
2022-12-05T01:41:49.858Z,10.13
2022-12-05T01:44:17.141Z,9.30
2022-12-05T01:46:47.889Z,9.48
2022-12-05T01:49:18.333Z,10.07
2022-12-05T01:51:51.967Z,9.57
2022-12-05T01:54:21.156Z,7.05
2022-12-05T01:56:56.190Z,7.05
2022-12-05T01:59:26.118Z,8.43
2022-12-05T02:01:53.377Z,10.93
2022-12-05T02:04:20.475Z,7.68
2022-12-05T02:06:47.689Z,8.35
2022-12-05T02:09:14.925Z,8.70
2022-12-05T02:12:00.811Z,8.48
2022-12-05T02:14:50.569Z,7.93
2022-12-05T02:17:29.449Z,8.00
2022-12-05T02:23:18.144Z,8.30
2022-12-05T02:25:54.492Z,7.75
2022-12-05T02:28:56.479Z,7.95
2022-12-05T02:31:41.531Z,8.48
2022-12-05T02:34:29.810Z,9.60
2022-12-05T02:37:17.090Z,9.75
2022-12-05T02:40:00.855Z,6.07
2022-12-05T02:42:27.858Z,9.50
2022-12-05T02:45:04.108Z,7.03
2022-12-05T02:47:33.163Z,8.63
2022-12-05T02:50:00.528Z,9.05
2022-12-05T02:52:30.481Z,7.35
2022-12-05T02:54:58.322Z,6.97
2022-12-05T02:57:25.302Z,7.67
2022-12-05T02:59:52.372Z,7.60
2022-12-05T03:02:26.766Z,7.47
2022-12-05T03:04:58.384Z,8.27
2022-12-05T03:07:29.338Z,9.73
2022-12-05T03:10:01.607Z,7.00
2022-12-05T03:12:38.553Z,8.15
2022-12-05T03:15:24.609Z,5.90
2022-12-05T03:17:58.199Z,8.45
2022-12-05T03:20:34.370Z,9.18
2022-12-05T03:23:11.454Z,6.65
2022-12-05T03:25:54.581Z,5.43
2022-12-05T03:28:40.173Z,9.80
2022-12-05T03:31:11.501Z,7.38
2022-12-05T03:33:45.120Z,5.97
2022-12-05T03:36:23.746Z,6.80
2022-12-05T03:39:23.694Z,7.20
2022-12-05T03:42:03.057Z,7.35
2022-12-05T03:44:41.122Z,4.63
2022-12-05T03:47:23.529Z,6.13
2022-12-05T03:49:56.037Z,8.43
2022-12-05T03:52:56.902Z,5.15
2022-12-05T03:55:25.267Z,4.35
2022-12-05T03:58:01.613Z,5.75
2022-12-05T04:00:33.761Z,5.28
2022-12-05T04:03:23.213Z,6.32
2022-12-05T04:05:55.503Z,5.80
2022-12-05T04:08:31.960Z,4.80
2022-12-05T04:11:03.206Z,4.75
2022-12-05T04:13:41.452Z,4.82
2022-12-05T04:16:42.602Z,5.75
2022-12-05T04:19:28.581Z,5.40
2022-12-05T04:21:57.279Z,6.78
2022-12-05T04:24:47.876Z,4.00
2022-12-05T04:27:45.432Z,5.07
2022-12-05T04:30:17.536Z,4.53
2022-12-05T04:33:02.278Z,4.85
2022-12-05T04:35:52.266Z,2.97
2022-12-05T04:38:28.384Z,4.10
2022-12-05T04:41:02.365Z,3.33
2022-12-05T04:43:33.669Z,4.20
2022-12-05T04:46:03.490Z,5.57
2022-12-05T04:48:32.076Z,3.67
2022-12-05T04:50:59.737Z,5.88
2022-12-05T04:53:29.578Z,5.28
2022-12-05T04:55:59.748Z,5.13
2022-12-05T04:58:28.537Z,5.72
2022-12-05T05:01:18.874Z,4.03
2022-12-05T05:04:17.865Z,5.95
2022-12-05T05:06:46.115Z,4.35
2022-12-05T05:09:13.489Z,4.72
2022-12-05T05:11:40.473Z,5.82
2022-12-05T05:14:07.427Z,4.38
2022-12-05T05:16:39.784Z,3.63
2022-12-05T05:19:08.141Z,4.63
2022-12-05T05:21:38.512Z,5.75
2022-12-05T05:24:06.991Z,4.95
2022-12-05T05:26:36.716Z,4.63
2022-12-05T05:29:04.867Z,3.38
2022-12-05T05:31:32.383Z,7.68
2022-12-05T05:34:04.579Z,3.92
2022-12-05T05:36:36.091Z,4.45
2022-12-05T05:39:04.492Z,3.53
2022-12-05T05:41:34.492Z,6.15
2022-12-05T05:44:02.499Z,6.28
2022-12-05T05:46:32.089Z,2.63
2022-12-05T05:48:59.602Z,5.18
2022-12-05T05:51:29.503Z,2.88
2022-12-05T05:53:58.224Z,4.45
2022-12-05T05:56:25.374Z,4.18
2022-12-05T05:58:57.534Z,4.38
2022-12-05T06:01:24.833Z,2.28
2022-12-05T06:03:52.217Z,4.13
2022-12-05T06:06:20.644Z,3.63
2022-12-05T06:08:48.046Z,5.03
2022-12-05T06:11:25.324Z,3.25
2022-12-05T06:13:55.778Z,4.40
2022-12-05T06:16:22.774Z,3.75
2022-12-05T06:18:50.151Z,6.72
2022-12-05T06:21:17.386Z,2.83
2022-12-05T06:23:44.737Z,3.95
2022-12-05T06:26:15.002Z,4.97
2022-12-05T06:28:42.703Z,2.58
2022-12-05T06:31:12.695Z,3.47
2022-12-05T06:33:40.177Z,5.20
2022-12-05T06:36:10.138Z,4.22
2022-12-05T06:38:41.841Z,5.40
2022-12-05T06:41:15.331Z,5.82
2022-12-05T06:43:43.013Z,5.53
2022-12-05T06:46:12.673Z,5.90
2022-12-05T06:48:39.775Z,3.60
2022-12-05T06:51:10.965Z,5.50
2022-12-05T06:53:38.655Z,4.68
2022-12-05T06:56:08.303Z,3.77
2022-12-05T06:58:35.290Z,4.30
2022-12-05T07:01:21.016Z,6.93
2022-12-05T07:03:51.278Z,3.95
2022-12-05T07:06:18.324Z,4.82
2022-12-05T07:08:45.431Z,6.20
2022-12-05T07:11:12.398Z,5.13
2022-12-05T07:13:39.460Z,4.18
2022-12-05T07:16:07.457Z,6.43
2022-12-05T07:18:35.217Z,4.05
2022-12-05T07:21:12.533Z,5.67
2022-12-05T07:23:41.070Z,5.13
2022-12-05T07:26:09.644Z,4.75
2022-12-05T07:31:08.822Z,4.70
2022-12-05T07:33:36.917Z,5.18
2022-12-05T07:36:06.791Z,7.20
2022-12-05T07:38:34.224Z,3.08
2022-12-05T07:41:13.091Z,8.35
2022-12-05T07:43:41.172Z,5.35
2022-12-05T07:46:09.328Z,5.97
2022-12-05T07:48:36.316Z,6.00
2022-12-05T07:51:05.706Z,5.70
2022-12-05T07:53:34.619Z,7.25
2022-12-05T07:56:03.814Z,7.00
2022-12-05T07:58:31.851Z,4.05
2022-12-05T08:01:10.748Z,4.32
2022-12-05T08:03:37.958Z,4.75
2022-12-05T08:06:19.842Z,4.13
2022-12-05T08:08:50.158Z,6.35
2022-12-05T08:11:28.507Z,5.25
2022-12-05T08:13:56.474Z,5.75
2022-12-05T08:16:25.753Z,3.95
2022-12-05T08:18:58.988Z,3.05
2022-12-05T08:21:26.277Z,4.88
2022-12-05T08:23:53.691Z,5.32
2022-12-05T08:26:30.572Z,3.58
2022-12-05T08:29:01.760Z,5.07
2022-12-05T08:31:31.036Z,6.60
2022-12-05T08:33:59.747Z,6.55
2022-12-05T08:39:04.105Z,11.13
2022-12-05T08:41:31.614Z,8.60
2022-12-05T08:44:03.141Z,9.52
2022-12-05T08:46:31.911Z,6.20
2022-12-05T08:48:59.128Z,4.90
2022-12-05T08:51:26.287Z,4.22
2022-12-05T08:53:53.590Z,4.72
2022-12-05T08:56:25.039Z,6.88
2022-12-05T08:58:53.981Z,5.15
2022-12-05T09:01:22.502Z,6.88
2022-12-05T09:06:19.999Z,7.70
2022-12-05T09:08:47.819Z,5.97
2022-12-05T09:11:20.353Z,6.27
2022-12-05T09:13:48.357Z,7.90
2022-12-05T09:16:18.577Z,5.40
2022-12-05T09:18:46.252Z,5.20
2022-12-05T09:21:18.870Z,6.45
2022-12-05T09:23:46.007Z,6.53
2022-12-05T09:26:15.869Z,5.18
2022-12-05T09:28:44.243Z,7.00
2022-12-05T09:31:14.587Z,7.65
2022-12-05T09:33:41.687Z,6.35
2022-12-05T09:36:12.929Z,5.53
2022-12-05T09:38:40.625Z,5.38
2022-12-05T09:41:10.708Z,5.72
2022-12-05T09:43:43.068Z,4.30
2022-12-05T09:46:33.982Z,5.32
2022-12-05T09:49:04.727Z,3.72
2022-12-05T09:51:32.301Z,5.18
2022-12-05T09:53:59.308Z,6.95
2022-12-05T09:56:29.721Z,7.40
2022-12-05T09:59:00.892Z,8.02
2022-12-05T10:01:45.974Z,6.88
2022-12-05T10:04:38.987Z,7.25
2022-12-05T10:08:02.195Z,4.93
2022-12-05T10:10:40.039Z,4.25
2022-12-05T10:13:39.414Z,5.13
2022-12-05T10:16:30.808Z,7.05
2022-12-05T10:19:03.656Z,6.57
2022-12-05T10:21:49.534Z,6.13
2022-12-05T10:24:24.246Z,5.82
2022-12-05T10:27:02.694Z,5.28
2022-12-05T10:29:42.848Z,5.22
2022-12-05T10:32:18.955Z,6.47
2022-12-05T10:34:46.751Z,8.18
2022-12-05T10:37:19.330Z,7.77
2022-12-05T10:39:47.677Z,6.85
2022-12-05T10:42:28.246Z,6.30
2022-12-05T10:45:02.892Z,6.03
2022-12-05T10:47:30.976Z,7.38
2022-12-05T10:50:03.546Z,5.43
2022-12-05T10:52:32.022Z,5.53
2022-12-05T10:55:06.410Z,7.88
2022-12-05T10:57:33.330Z,6.45
2022-12-05T11:00:13.507Z,5.25
2022-12-05T11:02:42.970Z,6.22
2022-12-05T11:05:10.312Z,7.07
2022-12-05T11:07:51.144Z,6.35
2022-12-05T11:10:37.685Z,4.53
2022-12-05T11:13:16.096Z,5.32
2022-12-05T11:15:53.710Z,4.38
2022-12-05T11:18:25.496Z,5.65
2022-12-05T11:20:52.793Z,7.00
2022-12-05T11:25:59.340Z,6.72
2022-12-05T11:31:03.547Z,8.73
2022-12-05T11:33:36.049Z,8.30
2022-12-05T11:36:19.780Z,9.25
2022-12-05T11:38:47.280Z,5.82
2022-12-05T11:41:53.984Z,8.93
2022-12-05T11:44:49.877Z,5.78
2022-12-05T11:47:41.900Z,9.30
2022-12-05T11:50:42.010Z,6.00
2022-12-05T11:53:46.787Z,7.40
2022-12-05T11:56:41.576Z,6.20
2022-12-05T11:59:33.140Z,16.15
2022-12-05T12:02:34.497Z,6.80
2022-12-05T12:05:34.761Z,5.72
2022-12-05T12:08:13.800Z,6.25
2022-12-05T12:10:49.605Z,5.75
2022-12-05T12:13:48.274Z,7.57
2022-12-05T12:16:42.106Z,7.68
2022-12-05T12:19:17.672Z,11.65
2022-12-05T12:21:57.767Z,6.05
2022-12-05T12:24:42.131Z,5.80
2022-12-05T12:27:27.332Z,7.05
2022-12-05T12:29:57.346Z,7.18
2022-12-05T12:32:24.275Z,9.68
2022-12-05T12:35:17.086Z,5.75
2022-12-05T12:37:52.717Z,6.78
2022-12-05T12:40:51.678Z,7.43
2022-12-05T12:43:52.094Z,6.45
2022-12-05T12:46:16.388Z,6.80
2022-12-05T12:49:14.251Z,7.03
2022-12-05T12:51:54.049Z,10.82
2022-12-05T12:57:39.160Z,5.35
2022-12-05T13:00:24.507Z,5.28
2022-12-05T13:03:00.571Z,6.82
2022-12-05T13:05:32.969Z,6.43
2022-12-05T13:08:06.792Z,8.82
2022-12-05T13:10:41.086Z,6.07
2022-12-05T13:13:14.088Z,6.18
2022-12-05T13:16:01.728Z,8.30
2022-12-05T13:18:28.776Z,6.25
2022-12-05T13:20:59.946Z,5.60
2022-12-05T13:23:32.981Z,6.70
2022-12-05T13:26:07.651Z,6.75
2022-12-05T13:28:42.366Z,7.07
2022-12-05T13:31:11.039Z,8.57
2022-12-05T13:33:47.117Z,9.18
2022-12-05T13:36:38.780Z,8.55
2022-12-05T13:39:36.305Z,7.43
2022-12-05T13:42:16.104Z,8.80
2022-12-05T13:45:19.359Z,7.47
2022-12-05T13:48:01.560Z,6.97
2022-12-05T13:50:36.587Z,6.53
2022-12-05T13:53:28.545Z,6.25
2022-12-05T13:56:22.317Z,8.85
2022-12-05T13:58:57.296Z,7.47
2022-12-05T14:01:27.675Z,5.65
2022-12-05T14:04:00.401Z,6.07
2022-12-05T14:06:39.251Z,5.63
2022-12-05T14:09:30.384Z,4.97
2022-12-05T14:12:12.855Z,6.72
2022-12-05T14:14:58.211Z,5.25
2022-12-05T14:17:29.050Z,7.45
2022-12-05T14:20:35.403Z,5.30
2022-12-05T14:23:20.550Z,5.50
2022-12-05T14:26:08.945Z,7.88
2022-12-05T14:29:13.781Z,9.52
2022-12-05T14:31:53.566Z,6.03
2022-12-05T14:34:22.397Z,5.80
2022-12-05T14:37:24.925Z,6.20
2022-12-05T14:39:58.091Z,6.05
2022-12-05T14:42:58.920Z,5.60
2022-12-05T14:45:53.505Z,7.32
2022-12-05T14:48:20.624Z,8.15
2022-12-05T14:50:52.792Z,5.47
2022-12-05T14:53:22.943Z,5.43
2022-12-05T14:56:16.416Z,8.23
2022-12-05T14:58:51.619Z,9.13
2022-12-05T15:01:27.742Z,12.55
2022-12-05T15:04:28.690Z,9.10
2022-12-05T15:07:18.111Z,6.93
2022-12-05T15:10:13.977Z,11.82
2022-12-05T15:13:03.060Z,6.47
2022-12-05T15:15:55.275Z,8.05
2022-12-05T15:18:31.756Z,8.38
2022-12-05T15:21:01.759Z,7.90
2022-12-05T15:23:39.713Z,9.75
2022-12-05T15:29:28.721Z,9.13
2022-12-05T15:32:18.901Z,8.18
2022-12-05T15:35:00.741Z,9.43
2022-12-05T15:37:58.316Z,8.48
2022-12-05T15:40:26.280Z,9.87
2022-12-05T15:42:57.698Z,10.40
2022-12-05T15:45:28.825Z,9.88
2022-12-05T15:48:09.593Z,8.23
2022-12-05T15:50:47.563Z,7.85
2022-12-05T15:53:32.328Z,7.45
2022-12-05T15:56:07.708Z,6.85
2022-12-05T15:58:46.662Z,8.15
2022-12-05T16:01:21.708Z,8.07
2022-12-05T16:04:16.156Z,6.97
2022-12-05T16:06:49.157Z,7.32
2022-12-05T16:09:19.898Z,9.75
2022-12-05T16:11:58.935Z,5.97
2022-12-05T16:14:58.328Z,7.57
2022-12-05T16:17:20.640Z,8.18
2022-12-05T16:22:17.196Z,8.73
2022-12-05T16:24:54.158Z,7.50
2022-12-05T16:27:35.662Z,7.07
2022-12-05T16:30:22.840Z,6.35
2022-12-05T16:32:58.032Z,7.10
2022-12-05T16:35:28.128Z,7.57
2022-12-05T16:38:10.324Z,5.30
2022-12-05T16:40:39.545Z,6.60
2022-12-05T16:43:32.941Z,5.13
2022-12-05T16:46:14.750Z,7.55
2022-12-05T16:49:08.817Z,7.72
2022-12-05T16:51:44.841Z,5.32
2022-12-05T16:54:11.814Z,5.30
2022-12-05T16:56:39.708Z,6.63
2022-12-05T16:59:11.938Z,6.63
2022-12-05T17:01:39.441Z,4.47
2022-12-05T17:04:10.797Z,4.75
2022-12-05T17:06:39.429Z,6.07
2022-12-05T17:09:06.421Z,5.80
2022-12-05T17:11:37.181Z,7.13
2022-12-05T17:14:04.508Z,4.50
2022-12-05T17:16:31.584Z,6.13
2022-12-05T17:18:58.597Z,6.03
2022-12-05T17:21:30.394Z,5.82
2022-12-05T17:23:57.873Z,5.50
2022-12-05T17:26:25.257Z,5.50
2022-12-05T17:28:52.745Z,5.88
2022-12-05T17:31:21.970Z,5.57
2022-12-05T17:33:50.746Z,5.40
2022-12-05T17:36:20.643Z,5.05
2022-12-05T17:38:48.145Z,5.07
2022-12-05T17:41:17.968Z,4.00
2022-12-05T17:43:46.020Z,4.13
2022-12-05T17:46:19.035Z,6.47
2022-12-05T17:48:47.044Z,6.40
2022-12-05T17:51:14.801Z,4.70
2022-12-05T17:53:43.066Z,5.07
2022-12-05T17:56:10.237Z,4.32
2022-12-05T17:58:37.346Z,4.15
2022-12-05T18:01:05.599Z,6.22
2022-12-05T18:03:32.935Z,3.80
2022-12-05T18:06:00.056Z,6.47
2022-12-05T18:08:29.281Z,4.03
2022-12-05T18:10:57.043Z,5.40
2022-12-05T18:13:24.215Z,5.47
2022-12-05T18:15:57.347Z,5.50
2022-12-05T18:18:27.379Z,2.97
2022-12-05T18:21:11.546Z,3.55
2022-12-05T18:23:39.863Z,4.43
2022-12-05T18:26:08.723Z,2.97
2022-12-05T18:28:40.058Z,3.72
2022-12-05T18:31:12.616Z,3.63
2022-12-05T18:33:39.986Z,4.75
2022-12-05T18:36:09.432Z,4.70
2022-12-05T18:38:37.683Z,4.88
2022-12-05T18:41:06.257Z,5.47
2022-12-05T18:46:03.094Z,5.28
2022-12-05T18:48:40.008Z,6.53
2022-12-05T18:51:16.087Z,5.75
2022-12-05T18:53:51.617Z,3.85
2022-12-05T18:56:22.828Z,4.80
2022-12-05T18:58:58.737Z,2.70
2022-12-05T19:01:27.353Z,4.47
2022-12-05T19:06:24.371Z,4.45
2022-12-05T19:08:55.235Z,3.97
2022-12-05T19:11:22.469Z,6.00
2022-12-05T19:13:50.277Z,8.77
2022-12-05T19:16:18.566Z,8.10
2022-12-05T19:18:47.143Z,8.45
2022-12-05T19:21:14.276Z,5.18
2022-12-05T19:23:41.217Z,4.20
2022-12-05T19:26:09.684Z,5.25
2022-12-05T19:28:37.820Z,4.05
2022-12-05T19:31:11.058Z,3.58
2022-12-05T19:33:43.230Z,3.80
2022-12-05T19:36:21.633Z,3.50
2022-12-05T19:38:49.799Z,2.65
2022-12-05T19:41:19.755Z,2.97
2022-12-05T19:43:47.609Z,3.35
2022-12-05T19:46:17.393Z,5.75
2022-12-05T19:48:44.498Z,3.13
2022-12-05T19:51:12.347Z,3.40
2022-12-05T19:53:41.680Z,2.40
2022-12-05T19:56:16.328Z,2.92
2022-12-05T19:58:44.038Z,3.92
2022-12-05T20:01:12.300Z,3.63
2022-12-05T20:03:39.928Z,4.95
2022-12-05T20:06:08.278Z,3.75
2022-12-05T20:08:36.550Z,7.38
2022-12-05T20:11:19.222Z,7.10
2022-12-05T20:13:47.629Z,7.38
2022-12-05T20:16:17.043Z,6.22
2022-12-05T20:18:44.284Z,7.28
2022-12-05T20:21:13.263Z,7.28
2022-12-05T20:23:40.724Z,7.10
2022-12-05T20:26:11.322Z,5.57
2022-12-05T20:28:39.264Z,5.32
2022-12-05T20:31:13.362Z,5.78
2022-12-05T20:33:41.181Z,4.10
2022-12-05T20:36:14.355Z,7.68
2022-12-05T20:38:42.441Z,4.63
2022-12-05T20:41:12.460Z,6.40
2022-12-05T20:43:39.520Z,7.68
2022-12-05T20:46:10.532Z,5.82
2022-12-05T20:48:37.916Z,5.50
2022-12-05T20:51:13.555Z,6.22
2022-12-05T20:53:45.224Z,4.45
2022-12-05T20:56:17.650Z,5.63
2022-12-05T20:58:50.482Z,5.68
2022-12-05T21:01:19.333Z,7.50
2022-12-05T21:03:49.674Z,5.50
2022-12-05T21:06:21.974Z,6.70
2022-12-05T21:08:49.962Z,8.98
2022-12-05T21:11:16.959Z,6.97
2022-12-05T21:13:43.982Z,7.03
2022-12-05T21:16:17.237Z,6.28
2022-12-05T21:18:45.460Z,6.43
2022-12-05T21:21:15.520Z,6.75
2022-12-05T21:23:43.893Z,6.72
2022-12-05T21:26:16.672Z,6.25
2022-12-05T21:28:45.357Z,4.28
2022-12-05T21:33:43.348Z,7.32
2022-12-05T21:36:10.550Z,8.18
2022-12-05T21:38:37.526Z,8.75
2022-12-05T21:41:05.127Z,5.35
2022-12-05T21:43:33.489Z,7.10
2022-12-05T21:46:00.798Z,6.57
2022-12-05T21:48:28.564Z,7.20
2022-12-05T21:50:55.715Z,4.63
2022-12-05T21:53:22.986Z,6.03
2022-12-05T21:56:00.591Z,7.32
2022-12-05T21:58:28.187Z,5.93
2022-12-05T22:00:55.337Z,5.05
2022-12-05T22:03:22.366Z,7.63
2022-12-05T22:05:52.303Z,4.88
2022-12-05T22:08:22.343Z,6.97
2022-12-05T22:10:49.533Z,4.75
2022-12-05T22:13:19.153Z,5.03
2022-12-05T22:15:46.342Z,5.35
2022-12-05T22:18:13.386Z,6.22
2022-12-05T22:20:40.343Z,6.75
2022-12-05T22:23:09.259Z,5.40
2022-12-05T22:25:38.161Z,5.90
2022-12-05T22:28:05.304Z,5.68
2022-12-05T22:30:32.234Z,5.13
2022-12-05T22:32:59.266Z,5.15
2022-12-05T22:35:26.193Z,4.55
2022-12-05T22:37:54.175Z,4.80
2022-12-05T22:40:21.276Z,3.75
2022-12-05T22:42:48.320Z,8.20
2022-12-05T22:45:15.332Z,4.50
2022-12-05T22:47:42.226Z,6.00
2022-12-05T22:50:09.714Z,5.68
2022-12-05T22:52:37.575Z,6.75
2022-12-05T22:55:04.919Z,3.63
2022-12-05T22:57:32.073Z,5.38
2022-12-05T22:59:59.280Z,5.38
2022-12-05T23:02:26.575Z,5.05
2022-12-05T23:04:53.639Z,3.90
2022-12-05T23:07:20.779Z,6.38
2022-12-05T23:09:47.892Z,7.50
2022-12-05T23:12:15.456Z,6.97
2022-12-05T23:14:42.533Z,6.78
2022-12-05T23:17:09.667Z,8.70
2022-12-05T23:19:36.774Z,5.72
2022-12-05T23:22:03.859Z,5.40
2022-12-05T23:24:32.278Z,6.68
2022-12-05T23:26:59.422Z,4.10
2022-12-05T23:29:26.528Z,6.90
2022-12-05T23:31:53.674Z,3.33
2022-12-05T23:34:20.854Z,4.88
2022-12-05T23:36:47.907Z,4.57
2022-12-05T23:39:14.991Z,3.78
2022-12-05T23:41:42.224Z,4.30
2022-12-05T23:44:09.353Z,3.65
2022-12-05T23:46:36.538Z,4.22
2022-12-05T23:49:04.025Z,6.05
2022-12-05T23:51:31.290Z,5.32
2022-12-05T23:54:01.429Z,4.78
2022-12-05T23:56:31.579Z,6.38
2022-12-05T23:59:01.545Z,6.50
